sensor_id;sensor_type;location;lat;lon;timestamp;temperature;humidity
20091;DHT22;10205;49.678;6.560;2023-02-01T00:02:04;10.00;76.90
20091;DHT22;10205;49.678;6.560;2023-02-01T00:04:31;10.00;76.90
20091;DHT22;10205;49.678;6.560;2023-02-01T00:06:58;10.00;77.00
20091;DHT22;10205;49.678;6.560;2023-02-01T00:09:26;10.00;77.00
20091;DHT22;10205;49.678;6.560;2023-02-01T00:11:55;10.00;76.80
20091;DHT22;10205;49.678;6.560;2023-02-01T00:14:24;10.00;76.80
20091;DHT22;10205;49.678;6.560;2023-02-01T00:16:53;10.00;76.90
20091;DHT22;10205;49.678;6.560;2023-02-01T00:19:20;10.00;76.90
20091;DHT22;10205;49.678;6.560;2023-02-01T00:21:47;10.00;77.00
20091;DHT22;10205;49.678;6.560;2023-02-01T00:24:14;10.00;77.00
20091;DHT22;10205;49.678;6.560;2023-02-01T00:26:44;10.00;77.00
20091;DHT22;10205;49.678;6.560;2023-02-01T00:29:13;10.00;77.00
20091;DHT22;10205;49.678;6.560;2023-02-01T00:31:42;10.00;77.00
20091;DHT22;10205;49.678;6.560;2023-02-01T00:34:14;10.00;77.00
20091;DHT22;10205;49.678;6.560;2023-02-01T00:36:45;10.00;76.90
20091;DHT22;10205;49.678;6.560;2023-02-01T00:39:12;10.10;76.90
20091;DHT22;10205;49.678;6.560;2023-02-01T00:41:40;10.10;76.90
20091;DHT22;10205;49.678;6.560;2023-02-01T00:44:07;10.10;76.90
20091;DHT22;10205;49.678;6.560;2023-02-01T00:46:34;10.10;76.90
20091;DHT22;10205;49.678;6.560;2023-02-01T00:49:01;10.10;76.90
20091;DHT22;10205;49.678;6.560;2023-02-01T00:51:30;10.10;77.00
20091;DHT22;10205;49.678;6.560;2023-02-01T00:53:57;10.10;77.00
20091;DHT22;10205;49.678;6.560;2023-02-01T00:56:24;10.10;76.90
20091;DHT22;10205;49.678;6.560;2023-02-01T00:58:53;10.10;77.00
20091;DHT22;10205;49.678;6.560;2023-02-01T01:01:23;10.00;76.90
20091;DHT22;10205;49.678;6.560;2023-02-01T01:03:54;10.10;77.00
20091;DHT22;10205;49.678;6.560;2023-02-01T01:06:24;10.00;77.00
20091;DHT22;10205;49.678;6.560;2023-02-01T01:08:55;10.10;77.00
20091;DHT22;10205;49.678;6.560;2023-02-01T01:11:26;10.10;77.00
20091;DHT22;10205;49.678;6.560;2023-02-01T01:13:55;10.10;77.00
20091;DHT22;10205;49.678;6.560;2023-02-01T01:16:25;10.10;76.90
20091;DHT22;10205;49.678;6.560;2023-02-01T01:18:54;10.10;76.90
20091;DHT22;10205;49.678;6.560;2023-02-01T01:21:22;10.10;77.80
20091;DHT22;10205;49.678;6.560;2023-02-01T01:23:49;10.10;77.00
20091;DHT22;10205;49.678;6.560;2023-02-01T01:26:19;10.10;76.90
20091;DHT22;10205;49.678;6.560;2023-02-01T01:28:48;10.10;77.00
20091;DHT22;10205;49.678;6.560;2023-02-01T01:31:17;10.10;77.00
20091;DHT22;10205;49.678;6.560;2023-02-01T01:33:47;10.10;76.90
20091;DHT22;10205;49.678;6.560;2023-02-01T01:36:16;10.10;76.90
20091;DHT22;10205;49.678;6.560;2023-02-01T01:38:46;10.10;76.90
20091;DHT22;10205;49.678;6.560;2023-02-01T01:41:16;10.10;76.80
20091;DHT22;10205;49.678;6.560;2023-02-01T01:43:52;10.10;76.70
20091;DHT22;10205;49.678;6.560;2023-02-01T01:46:22;10.10;76.70
20091;DHT22;10205;49.678;6.560;2023-02-01T01:48:57;10.10;76.60
20091;DHT22;10205;49.678;6.560;2023-02-01T01:51:32;10.20;76.70
20091;DHT22;10205;49.678;6.560;2023-02-01T01:54:07;10.20;76.60
20091;DHT22;10205;49.678;6.560;2023-02-01T01:56:40;10.10;76.50
20091;DHT22;10205;49.678;6.560;2023-02-01T01:59:09;10.20;76.70
20091;DHT22;10205;49.678;6.560;2023-02-01T02:01:37;10.20;76.40
20091;DHT22;10205;49.678;6.560;2023-02-01T02:04:05;10.10;76.40
20091;DHT22;10205;49.678;6.560;2023-02-01T02:06:41;10.10;76.30
20091;DHT22;10205;49.678;6.560;2023-02-01T02:09:13;10.10;76.30
20091;DHT22;10205;49.678;6.560;2023-02-01T02:11:43;10.10;76.30
20091;DHT22;10205;49.678;6.560;2023-02-01T02:14:12;10.10;76.30
20091;DHT22;10205;49.678;6.560;2023-02-01T02:16:55;10.10;76.30
20091;DHT22;10205;49.678;6.560;2023-02-01T02:20:02;10.10;76.30
20091;DHT22;10205;49.678;6.560;2023-02-01T02:23:27;10.10;76.10
20091;DHT22;10205;49.678;6.560;2023-02-01T02:26:25;10.20;76.10
20091;DHT22;10205;49.678;6.560;2023-02-01T02:29:36;10.20;76.00
20091;DHT22;10205;49.678;6.560;2023-02-01T02:35:26;10.10;75.90
20091;DHT22;10205;49.678;6.560;2023-02-01T02:38:05;10.20;75.90
20091;DHT22;10205;49.678;6.560;2023-02-01T02:40:47;10.20;75.70
20091;DHT22;10205;49.678;6.560;2023-02-01T02:43:22;10.10;75.60
20091;DHT22;10205;49.678;6.560;2023-02-01T02:46:14;10.20;75.50
20091;DHT22;10205;49.678;6.560;2023-02-01T02:49:09;10.20;75.60
20091;DHT22;10205;49.678;6.560;2023-02-01T02:51:50;10.20;75.60
20091;DHT22;10205;49.678;6.560;2023-02-01T02:54:41;10.20;75.50
20091;DHT22;10205;49.678;6.560;2023-02-01T02:57:20;10.20;75.50
20091;DHT22;10205;49.678;6.560;2023-02-01T03:00:10;10.10;75.40
20091;DHT22;10205;49.678;6.560;2023-02-01T03:03:02;10.20;75.70
20091;DHT22;10205;49.678;6.560;2023-02-01T03:05:48;10.10;75.40
20091;DHT22;10205;49.678;6.560;2023-02-01T03:08:20;10.10;75.50
20091;DHT22;10205;49.678;6.560;2023-02-01T03:10:51;10.20;75.60
20091;DHT22;10205;49.678;6.560;2023-02-01T03:13:35;10.20;75.60
20091;DHT22;10205;49.678;6.560;2023-02-01T03:16:10;10.20;75.60
20091;DHT22;10205;49.678;6.560;2023-02-01T03:18:46;10.20;75.70
20091;DHT22;10205;49.678;6.560;2023-02-01T03:21:21;10.10;75.50
20091;DHT22;10205;49.678;6.560;2023-02-01T03:23:58;10.20;75.60
20091;DHT22;10205;49.678;6.560;2023-02-01T03:26:31;10.20;76.30
20091;DHT22;10205;49.678;6.560;2023-02-01T03:29:10;10.20;75.60
20091;DHT22;10205;49.678;6.560;2023-02-01T03:31:41;10.20;75.50
20091;DHT22;10205;49.678;6.560;2023-02-01T03:34:09;10.20;75.70
20091;DHT22;10205;49.678;6.560;2023-02-01T03:36:40;10.20;75.60
20091;DHT22;10205;49.678;6.560;2023-02-01T03:39:16;10.20;75.60
20091;DHT22;10205;49.678;6.560;2023-02-01T03:41:52;10.20;75.70
20091;DHT22;10205;49.678;6.560;2023-02-01T03:44:24;10.20;75.60
20091;DHT22;10205;49.678;6.560;2023-02-01T03:46:59;10.20;75.60
20091;DHT22;10205;49.678;6.560;2023-02-01T03:49:36;10.20;76.40
20091;DHT22;10205;49.678;6.560;2023-02-01T03:52:09;10.20;75.60
20091;DHT22;10205;49.678;6.560;2023-02-01T03:54:41;10.20;75.60
20091;DHT22;10205;49.678;6.560;2023-02-01T03:57:13;10.20;75.60
20091;DHT22;10205;49.678;6.560;2023-02-01T03:59:45;10.20;75.60
20091;DHT22;10205;49.678;6.560;2023-02-01T04:02:13;10.20;75.70
20091;DHT22;10205;49.678;6.560;2023-02-01T04:04:40;10.20;75.60
20091;DHT22;10205;49.678;6.560;2023-02-01T04:07:07;10.20;75.60
20091;DHT22;10205;49.678;6.560;2023-02-01T04:09:34;10.20;75.70
20091;DHT22;10205;49.678;6.560;2023-02-01T04:12:03;10.20;75.60
20091;DHT22;10205;49.678;6.560;2023-02-01T04:14:30;10.20;75.60
20091;DHT22;10205;49.678;6.560;2023-02-01T04:16:58;10.20;75.60
20091;DHT22;10205;49.678;6.560;2023-02-01T04:19:28;10.20;75.60
20091;DHT22;10205;49.678;6.560;2023-02-01T04:21:59;10.20;75.60
20091;DHT22;10205;49.678;6.560;2023-02-01T04:24:26;10.20;75.60
20091;DHT22;10205;49.678;6.560;2023-02-01T04:26:54;10.20;75.60
20091;DHT22;10205;49.678;6.560;2023-02-01T04:29:25;10.20;75.60
20091;DHT22;10205;49.678;6.560;2023-02-01T04:31:52;10.20;75.60
20091;DHT22;10205;49.678;6.560;2023-02-01T04:34:19;10.20;75.50
20091;DHT22;10205;49.678;6.560;2023-02-01T04:36:48;10.20;75.50
20091;DHT22;10205;49.678;6.560;2023-02-01T04:39:15;10.20;75.40
20091;DHT22;10205;49.678;6.560;2023-02-01T04:41:42;10.20;75.50
20091;DHT22;10205;49.678;6.560;2023-02-01T04:44:14;10.20;75.50
20091;DHT22;10205;49.678;6.560;2023-02-01T04:46:44;10.20;75.50
20091;DHT22;10205;49.678;6.560;2023-02-01T04:49:14;10.20;75.40
20091;DHT22;10205;49.678;6.560;2023-02-01T04:51:41;10.20;75.40
20091;DHT22;10205;49.678;6.560;2023-02-01T04:54:09;10.20;75.40
20091;DHT22;10205;49.678;6.560;2023-02-01T04:56:37;10.20;75.40
20091;DHT22;10205;49.678;6.560;2023-02-01T04:59:05;10.20;75.30
20091;DHT22;10205;49.678;6.560;2023-02-01T05:01:33;10.20;75.20
20091;DHT22;10205;49.678;6.560;2023-02-01T05:04:01;10.20;75.30
20091;DHT22;10205;49.678;6.560;2023-02-01T05:06:29;10.20;75.20
20091;DHT22;10205;49.678;6.560;2023-02-01T05:08:56;10.20;75.20
20091;DHT22;10205;49.678;6.560;2023-02-01T05:11:23;10.20;75.20
20091;DHT22;10205;49.678;6.560;2023-02-01T05:14:07;10.20;75.20
20091;DHT22;10205;49.678;6.560;2023-02-01T05:16:38;10.20;75.30
20091;DHT22;10205;49.678;6.560;2023-02-01T05:19:07;10.20;75.30
20091;DHT22;10205;49.678;6.560;2023-02-01T05:21:34;10.20;75.30
20091;DHT22;10205;49.678;6.560;2023-02-01T05:24:01;10.20;75.30
20091;DHT22;10205;49.678;6.560;2023-02-01T05:26:39;10.20;75.20
20091;DHT22;10205;49.678;6.560;2023-02-01T05:29:08;10.20;75.30
20091;DHT22;10205;49.678;6.560;2023-02-01T05:31:36;10.20;75.20
20091;DHT22;10205;49.678;6.560;2023-02-01T05:34:04;10.20;75.20
20091;DHT22;10205;49.678;6.560;2023-02-01T05:36:33;10.20;75.20
20091;DHT22;10205;49.678;6.560;2023-02-01T05:39:00;10.20;75.20
20091;DHT22;10205;49.678;6.560;2023-02-01T05:41:27;10.20;76.00
20091;DHT22;10205;49.678;6.560;2023-02-01T05:43:55;10.20;75.20
20091;DHT22;10205;49.678;6.560;2023-02-01T05:46:22;10.20;75.00
20091;DHT22;10205;49.678;6.560;2023-02-01T05:48:51;10.30;74.90
20091;DHT22;10205;49.678;6.560;2023-02-01T05:51:18;10.20;74.80
20091;DHT22;10205;49.678;6.560;2023-02-01T05:53:47;10.20;74.80
20091;DHT22;10205;49.678;6.560;2023-02-01T05:56:14;10.20;74.80
20091;DHT22;10205;49.678;6.560;2023-02-01T05:58:41;10.20;74.80
20091;DHT22;10205;49.678;6.560;2023-02-01T06:01:09;10.20;74.80
20091;DHT22;10205;49.678;6.560;2023-02-01T06:03:36;10.20;74.40
20091;DHT22;10205;49.678;6.560;2023-02-01T06:06:03;10.20;74.40
20091;DHT22;10205;49.678;6.560;2023-02-01T06:08:31;10.20;74.60
20091;DHT22;10205;49.678;6.560;2023-02-01T06:11:04;10.20;74.60
20091;DHT22;10205;49.678;6.560;2023-02-01T06:13:32;10.20;74.40
20091;DHT22;10205;49.678;6.560;2023-02-01T06:16:00;10.20;74.50
20091;DHT22;10205;49.678;6.560;2023-02-01T06:18:28;10.20;74.50
20091;DHT22;10205;49.678;6.560;2023-02-01T06:20:58;10.20;74.40
20091;DHT22;10205;49.678;6.560;2023-02-01T06:23:26;10.20;75.20
20091;DHT22;10205;49.678;6.560;2023-02-01T06:25:59;10.20;74.20
20091;DHT22;10205;49.678;6.560;2023-02-01T06:28:29;10.20;74.00
20091;DHT22;10205;49.678;6.560;2023-02-01T06:30:57;10.20;73.00
20091;DHT22;10205;49.678;6.560;2023-02-01T06:33:24;10.20;73.10
20091;DHT22;10205;49.678;6.560;2023-02-01T06:35:57;10.20;73.30
20091;DHT22;10205;49.678;6.560;2023-02-01T06:38:25;10.10;72.50
20091;DHT22;10205;49.678;6.560;2023-02-01T06:40:53;10.20;72.80
20091;DHT22;10205;49.678;6.560;2023-02-01T06:43:21;10.10;72.80
20091;DHT22;10205;49.678;6.560;2023-02-01T06:45:50;10.20;72.40
20091;DHT22;10205;49.678;6.560;2023-02-01T06:48:17;10.10;72.10
20091;DHT22;10205;49.678;6.560;2023-02-01T06:50:44;10.10;72.30
20091;DHT22;10205;49.678;6.560;2023-02-01T06:53:12;10.10;71.90
20091;DHT22;10205;49.678;6.560;2023-02-01T06:55:39;10.10;71.30
20091;DHT22;10205;49.678;6.560;2023-02-01T06:58:06;10.10;71.40
20091;DHT22;10205;49.678;6.560;2023-02-01T07:00:33;10.10;71.30
20091;DHT22;10205;49.678;6.560;2023-02-01T07:03:02;10.10;71.70
20091;DHT22;10205;49.678;6.560;2023-02-01T07:05:32;10.10;72.10
20091;DHT22;10205;49.678;6.560;2023-02-01T07:08:01;10.10;72.00
20091;DHT22;10205;49.678;6.560;2023-02-01T07:10:28;10.10;71.60
20091;DHT22;10205;49.678;6.560;2023-02-01T07:12:56;10.10;71.90
20091;DHT22;10205;49.678;6.560;2023-02-01T07:15:23;10.10;71.60
20091;DHT22;10205;49.678;6.560;2023-02-01T07:17:50;10.10;71.60
20091;DHT22;10205;49.678;6.560;2023-02-01T07:20:19;10.00;71.20
20091;DHT22;10205;49.678;6.560;2023-02-01T07:22:46;10.00;71.00
20091;DHT22;10205;49.678;6.560;2023-02-01T07:25:13;10.00;71.30
20091;DHT22;10205;49.678;6.560;2023-02-01T07:27:40;10.00;71.60
20091;DHT22;10205;49.678;6.560;2023-02-01T07:30:09;10.00;71.80
20091;DHT22;10205;49.678;6.560;2023-02-01T07:32:37;10.00;71.10
20091;DHT22;10205;49.678;6.560;2023-02-01T07:35:05;10.00;70.90
20091;DHT22;10205;49.678;6.560;2023-02-01T07:37:34;10.00;70.60
20091;DHT22;10205;49.678;6.560;2023-02-01T07:40:04;9.90;71.10
20091;DHT22;10205;49.678;6.560;2023-02-01T07:42:33;9.90;71.10
20091;DHT22;10205;49.678;6.560;2023-02-01T07:45:01;9.90;71.10
20091;DHT22;10205;49.678;6.560;2023-02-01T07:47:29;9.90;70.90
20091;DHT22;10205;49.678;6.560;2023-02-01T07:49:56;9.80;71.30
20091;DHT22;10205;49.678;6.560;2023-02-01T07:52:23;9.80;71.10
20091;DHT22;10205;49.678;6.560;2023-02-01T07:54:52;9.80;71.30
20091;DHT22;10205;49.678;6.560;2023-02-01T07:57:19;9.80;71.60
20091;DHT22;10205;49.678;6.560;2023-02-01T07:59:46;9.80;72.40
20091;DHT22;10205;49.678;6.560;2023-02-01T08:02:27;9.80;71.30
20091;DHT22;10205;49.678;6.560;2023-02-01T08:04:54;9.80;71.70
20091;DHT22;10205;49.678;6.560;2023-02-01T08:07:21;9.80;71.90
20091;DHT22;10205;49.678;6.560;2023-02-01T08:09:48;9.80;72.00
20091;DHT22;10205;49.678;6.560;2023-02-01T08:12:17;9.70;71.80
20091;DHT22;10205;49.678;6.560;2023-02-01T08:14:44;9.70;72.00
20091;DHT22;10205;49.678;6.560;2023-02-01T08:17:11;9.70;71.90
20091;DHT22;10205;49.678;6.560;2023-02-01T08:19:39;9.70;71.80
20091;DHT22;10205;49.678;6.560;2023-02-01T08:22:06;9.70;71.70
20091;DHT22;10205;49.678;6.560;2023-02-01T08:24:33;9.70;72.10
20091;DHT22;10205;49.678;6.560;2023-02-01T08:27:00;9.70;71.90
20091;DHT22;10205;49.678;6.560;2023-02-01T08:29:30;9.70;72.00
20091;DHT22;10205;49.678;6.560;2023-02-01T08:31:57;9.70;72.10
20091;DHT22;10205;49.678;6.560;2023-02-01T08:34:24;9.70;71.80
20091;DHT22;10205;49.678;6.560;2023-02-01T08:36:52;9.70;71.60
20091;DHT22;10205;49.678;6.560;2023-02-01T08:39:26;9.70;71.80
20091;DHT22;10205;49.678;6.560;2023-02-01T08:41:53;9.70;71.70
20091;DHT22;10205;49.678;6.560;2023-02-01T08:44:36;9.60;71.80
20091;DHT22;10205;49.678;6.560;2023-02-01T08:47:03;9.60;71.50
20091;DHT22;10205;49.678;6.560;2023-02-01T08:49:33;9.60;71.70
20091;DHT22;10205;49.678;6.560;2023-02-01T08:52:07;9.60;71.70
20091;DHT22;10205;49.678;6.560;2023-02-01T08:54:34;9.60;71.80
20091;DHT22;10205;49.678;6.560;2023-02-01T08:57:01;9.60;72.10
20091;DHT22;10205;49.678;6.560;2023-02-01T08:59:29;9.60;72.30
20091;DHT22;10205;49.678;6.560;2023-02-01T09:01:57;9.70;72.10
20091;DHT22;10205;49.678;6.560;2023-02-01T09:04:24;9.60;71.90
20091;DHT22;10205;49.678;6.560;2023-02-01T09:06:51;9.70;71.80
20091;DHT22;10205;49.678;6.560;2023-02-01T09:09:21;9.70;71.80
20091;DHT22;10205;49.678;6.560;2023-02-01T09:11:48;9.70;72.00
20091;DHT22;10205;49.678;6.560;2023-02-01T09:14:15;9.70;71.70
20091;DHT22;10205;49.678;6.560;2023-02-01T09:16:42;9.70;72.00
20091;DHT22;10205;49.678;6.560;2023-02-01T09:19:11;9.70;72.30
20091;DHT22;10205;49.678;6.560;2023-02-01T09:21:38;9.70;72.30
20091;DHT22;10205;49.678;6.560;2023-02-01T09:24:05;9.70;72.10
20091;DHT22;10205;49.678;6.560;2023-02-01T09:26:33;9.70;72.20
20091;DHT22;10205;49.678;6.560;2023-02-01T09:29:00;9.80;72.50
20091;DHT22;10205;49.678;6.560;2023-02-01T09:31:27;9.80;72.10
20091;DHT22;10205;49.678;6.560;2023-02-01T09:33:54;9.80;71.90
20091;DHT22;10205;49.678;6.560;2023-02-01T09:36:23;9.80;71.70
20091;DHT22;10205;49.678;6.560;2023-02-01T09:38:50;9.80;71.40
20091;DHT22;10205;49.678;6.560;2023-02-01T09:41:36;9.80;71.70
20091;DHT22;10205;49.678;6.560;2023-02-01T09:44:21;9.80;72.00
20091;DHT22;10205;49.678;6.560;2023-02-01T09:46:58;9.80;71.10
20091;DHT22;10205;49.678;6.560;2023-02-01T09:49:29;9.80;71.50
20091;DHT22;10205;49.678;6.560;2023-02-01T09:52:02;9.90;71.60
20091;DHT22;10205;49.678;6.560;2023-02-01T09:54:40;9.90;71.30
20091;DHT22;10205;49.678;6.560;2023-02-01T09:57:17;9.90;71.20
20091;DHT22;10205;49.678;6.560;2023-02-01T09:59:55;9.90;71.60
20091;DHT22;10205;49.678;6.560;2023-02-01T10:02:28;9.90;71.60
20091;DHT22;10205;49.678;6.560;2023-02-01T10:04:57;9.90;71.50
20091;DHT22;10205;49.678;6.560;2023-02-01T10:07:35;9.90;71.70
20091;DHT22;10205;49.678;6.560;2023-02-01T10:10:13;9.90;71.70
20091;DHT22;10205;49.678;6.560;2023-02-01T10:13:10;9.90;71.50
20091;DHT22;10205;49.678;6.560;2023-02-01T10:15:58;9.90;71.60
20091;DHT22;10205;49.678;6.560;2023-02-01T10:22:03;10.00;71.70
20091;DHT22;10205;49.678;6.560;2023-02-01T10:24:42;10.00;71.30
20091;DHT22;10205;49.678;6.560;2023-02-01T10:27:19;10.00;70.90
20091;DHT22;10205;49.678;6.560;2023-02-01T10:29:53;10.00;71.20
20091;DHT22;10205;49.678;6.560;2023-02-01T10:32:29;10.00;71.40
20091;DHT22;10205;49.678;6.560;2023-02-01T10:35:01;10.00;71.10
20091;DHT22;10205;49.678;6.560;2023-02-01T10:37:35;10.00;71.20
20091;DHT22;10205;49.678;6.560;2023-02-01T10:40:15;10.00;71.10
20091;DHT22;10205;49.678;6.560;2023-02-01T10:42:47;10.00;71.40
20091;DHT22;10205;49.678;6.560;2023-02-01T10:45:18;10.00;71.30
20091;DHT22;10205;49.678;6.560;2023-02-01T10:47:49;10.00;71.10
20091;DHT22;10205;49.678;6.560;2023-02-01T10:50:33;10.00;71.10
20091;DHT22;10205;49.678;6.560;2023-02-01T10:53:09;10.00;70.10
20091;DHT22;10205;49.678;6.560;2023-02-01T10:55:46;10.10;70.70
20091;DHT22;10205;49.678;6.560;2023-02-01T10:58:17;10.10;71.30
20091;DHT22;10205;49.678;6.560;2023-02-01T11:00:53;10.10;71.10
20091;DHT22;10205;49.678;6.560;2023-02-01T11:03:36;10.10;70.90
20091;DHT22;10205;49.678;6.560;2023-02-01T11:06:11;10.10;70.30
20091;DHT22;10205;49.678;6.560;2023-02-01T11:08:48;10.10;70.80
20091;DHT22;10205;49.678;6.560;2023-02-01T11:11:18;10.20;70.50
20091;DHT22;10205;49.678;6.560;2023-02-01T11:13:52;10.20;70.60
20091;DHT22;10205;49.678;6.560;2023-02-01T11:16:21;10.20;70.10
20091;DHT22;10205;49.678;6.560;2023-02-01T11:18:54;10.20;70.30
20091;DHT22;10205;49.678;6.560;2023-02-01T11:21:22;10.30;70.30
20091;DHT22;10205;49.678;6.560;2023-02-01T11:23:50;10.30;70.20
20091;DHT22;10205;49.678;6.560;2023-02-01T11:26:22;10.30;70.40
20091;DHT22;10205;49.678;6.560;2023-02-01T11:28:54;10.30;70.60
20091;DHT22;10205;49.678;6.560;2023-02-01T11:31:26;10.30;70.60
20091;DHT22;10205;49.678;6.560;2023-02-01T11:34:07;10.40;70.60
20091;DHT22;10205;49.678;6.560;2023-02-01T11:36:39;10.40;70.20
20091;DHT22;10205;49.678;6.560;2023-02-01T11:39:14;10.40;70.30
20091;DHT22;10205;49.678;6.560;2023-02-01T11:42:00;10.50;70.20
20091;DHT22;10205;49.678;6.560;2023-02-01T11:44:33;10.50;70.00
20091;DHT22;10205;49.678;6.560;2023-02-01T11:47:23;10.50;69.90
20091;DHT22;10205;49.678;6.560;2023-02-01T11:49:53;10.50;69.50
20091;DHT22;10205;49.678;6.560;2023-02-01T11:55:34;10.60;69.30
20091;DHT22;10205;49.678;6.560;2023-02-01T11:58:31;10.60;69.00
20091;DHT22;10205;49.678;6.560;2023-02-01T12:01:36;10.60;69.30
20091;DHT22;10205;49.678;6.560;2023-02-01T12:04:44;10.60;68.80
20091;DHT22;10205;49.678;6.560;2023-02-01T12:07:27;10.70;68.40
20091;DHT22;10205;49.678;6.560;2023-02-01T12:10:18;10.70;69.00
20091;DHT22;10205;49.678;6.560;2023-02-01T12:12:59;10.70;68.60
20091;DHT22;10205;49.678;6.560;2023-02-01T12:18:52;10.70;68.40
20091;DHT22;10205;49.678;6.560;2023-02-01T12:21:47;10.80;68.20
20091;DHT22;10205;49.678;6.560;2023-02-01T12:27:49;10.80;68.80
20091;DHT22;10205;49.678;6.560;2023-02-01T12:31:07;10.80;68.40
20091;DHT22;10205;49.678;6.560;2023-02-01T12:33:57;10.90;68.90
20091;DHT22;10205;49.678;6.560;2023-02-01T12:36:45;10.80;68.20
20091;DHT22;10205;49.678;6.560;2023-02-01T12:39:22;10.90;68.40
20091;DHT22;10205;49.678;6.560;2023-02-01T12:41:56;10.90;68.70
20091;DHT22;10205;49.678;6.560;2023-02-01T12:44:42;10.90;69.00
20091;DHT22;10205;49.678;6.560;2023-02-01T12:47:19;10.90;68.30
20091;DHT22;10205;49.678;6.560;2023-02-01T12:49:57;10.90;68.20
20091;DHT22;10205;49.678;6.560;2023-02-01T12:52:33;11.00;68.40
20091;DHT22;10205;49.678;6.560;2023-02-01T12:55:10;11.00;68.30
20091;DHT22;10205;49.678;6.560;2023-02-01T12:57:49;11.00;68.20
20091;DHT22;10205;49.678;6.560;2023-02-01T13:00:23;11.00;68.40
20091;DHT22;10205;49.678;6.560;2023-02-01T13:03:01;11.00;68.00
20091;DHT22;10205;49.678;6.560;2023-02-01T13:05:47;11.10;67.80
20091;DHT22;10205;49.678;6.560;2023-02-01T13:08:21;11.10;67.90
20091;DHT22;10205;49.678;6.560;2023-02-01T13:10:53;11.10;67.10
20091;DHT22;10205;49.678;6.560;2023-02-01T13:13:32;11.10;67.50
20091;DHT22;10205;49.678;6.560;2023-02-01T13:16:15;11.10;66.30
20091;DHT22;10205;49.678;6.560;2023-02-01T13:18:56;11.10;66.60
20091;DHT22;10205;49.678;6.560;2023-02-01T13:21:36;11.10;68.20
20091;DHT22;10205;49.678;6.560;2023-02-01T13:24:23;11.20;67.50
20091;DHT22;10205;49.678;6.560;2023-02-01T13:26:56;11.20;67.50
20091;DHT22;10205;49.678;6.560;2023-02-01T13:29:25;11.20;67.60
20091;DHT22;10205;49.678;6.560;2023-02-01T13:32:13;11.20;67.40
20091;DHT22;10205;49.678;6.560;2023-02-01T13:35:25;11.30;66.80
20091;DHT22;10205;49.678;6.560;2023-02-01T13:38:43;11.30;66.20
20091;DHT22;10205;49.678;6.560;2023-02-01T13:41:31;11.30;66.80
20091;DHT22;10205;49.678;6.560;2023-02-01T13:44:04;11.30;67.80
20091;DHT22;10205;49.678;6.560;2023-02-01T13:46:40;11.40;66.90
20091;DHT22;10205;49.678;6.560;2023-02-01T13:49:18;11.40;67.30
20091;DHT22;10205;49.678;6.560;2023-02-01T13:51:51;11.40;66.80
20091;DHT22;10205;49.678;6.560;2023-02-01T13:54:32;11.40;66.60
20091;DHT22;10205;49.678;6.560;2023-02-01T13:57:03;11.40;66.20
20091;DHT22;10205;49.678;6.560;2023-02-01T13:59:50;11.40;66.50
20091;DHT22;10205;49.678;6.560;2023-02-01T14:09:19;11.40;66.30
20091;DHT22;10205;49.678;6.560;2023-02-01T14:15:24;11.40;65.90
20091;DHT22;10205;49.678;6.560;2023-02-01T14:17:53;11.50;66.10
20091;DHT22;10205;49.678;6.560;2023-02-01T14:20:46;11.50;67.10
20091;DHT22;10205;49.678;6.560;2023-02-01T14:23:29;11.50;66.40
20091;DHT22;10205;49.678;6.560;2023-02-01T14:26:10;11.50;66.80
20091;DHT22;10205;49.678;6.560;2023-02-01T14:28:46;11.50;66.30
20091;DHT22;10205;49.678;6.560;2023-02-01T14:31:32;11.60;66.00
20091;DHT22;10205;49.678;6.560;2023-02-01T14:34:05;11.60;66.20
20091;DHT22;10205;49.678;6.560;2023-02-01T14:36:43;11.60;65.40
20091;DHT22;10205;49.678;6.560;2023-02-01T14:39:28;11.50;65.80
20091;DHT22;10205;49.678;6.560;2023-02-01T14:42:03;11.60;65.50
20091;DHT22;10205;49.678;6.560;2023-02-01T14:44:36;11.60;65.50
20091;DHT22;10205;49.678;6.560;2023-02-01T14:47:32;11.60;65.10
20091;DHT22;10205;49.678;6.560;2023-02-01T14:50:27;11.60;65.00
20091;DHT22;10205;49.678;6.560;2023-02-01T14:53:14;11.50;65.20
20091;DHT22;10205;49.678;6.560;2023-02-01T14:55:48;11.60;64.90
20091;DHT22;10205;49.678;6.560;2023-02-01T14:58:31;11.60;65.20
20091;DHT22;10205;49.678;6.560;2023-02-01T15:01:05;11.60;65.50
20091;DHT22;10205;49.678;6.560;2023-02-01T15:03:48;11.60;65.10
20091;DHT22;10205;49.678;6.560;2023-02-01T15:06:26;11.60;64.60
20091;DHT22;10205;49.678;6.560;2023-02-01T15:09:00;11.60;65.30
20091;DHT22;10205;49.678;6.560;2023-02-01T15:11:30;11.60;64.60
20091;DHT22;10205;49.678;6.560;2023-02-01T15:13:58;11.60;65.30
20091;DHT22;10205;49.678;6.560;2023-02-01T15:16:26;11.60;65.00
20091;DHT22;10205;49.678;6.560;2023-02-01T15:19:10;11.60;65.50
20091;DHT22;10205;49.678;6.560;2023-02-01T15:21:45;11.60;65.30
20091;DHT22;10205;49.678;6.560;2023-02-01T15:24:22;11.70;65.00
20091;DHT22;10205;49.678;6.560;2023-02-01T15:26:51;11.70;65.30
20091;DHT22;10205;49.678;6.560;2023-02-01T15:29:21;11.70;64.80
20091;DHT22;10205;49.678;6.560;2023-02-01T15:31:52;11.70;64.40
20091;DHT22;10205;49.678;6.560;2023-02-01T15:34:20;11.70;64.50
20091;DHT22;10205;49.678;6.560;2023-02-01T15:36:48;11.70;64.90
20091;DHT22;10205;49.678;6.560;2023-02-01T15:39:21;11.70;64.50
20091;DHT22;10205;49.678;6.560;2023-02-01T15:41:53;11.70;64.50
20091;DHT22;10205;49.678;6.560;2023-02-01T15:44:34;11.70;64.70
20091;DHT22;10205;49.678;6.560;2023-02-01T15:47:10;11.70;65.00
20091;DHT22;10205;49.678;6.560;2023-02-01T15:49:45;11.70;64.90
20091;DHT22;10205;49.678;6.560;2023-02-01T15:52:21;11.70;65.00
20091;DHT22;10205;49.678;6.560;2023-02-01T15:54:56;11.60;64.60
20091;DHT22;10205;49.678;6.560;2023-02-01T15:57:28;11.70;65.00
20091;DHT22;10205;49.678;6.560;2023-02-01T16:00:00;11.70;65.00
20091;DHT22;10205;49.678;6.560;2023-02-01T16:02:34;11.70;64.90
20091;DHT22;10205;49.678;6.560;2023-02-01T16:05:05;11.70;65.00
20091;DHT22;10205;49.678;6.560;2023-02-01T16:07:56;11.70;64.70
20091;DHT22;10205;49.678;6.560;2023-02-01T16:10:29;11.70;64.20
20091;DHT22;10205;49.678;6.560;2023-02-01T16:12:58;11.70;64.90
20091;DHT22;10205;49.678;6.560;2023-02-01T16:15:27;11.70;65.10
20091;DHT22;10205;49.678;6.560;2023-02-01T16:17:55;11.70;65.30
20091;DHT22;10205;49.678;6.560;2023-02-01T16:20:22;11.70;65.00
20091;DHT22;10205;49.678;6.560;2023-02-01T16:22:49;11.70;65.10
20091;DHT22;10205;49.678;6.560;2023-02-01T16:25:16;11.70;64.90
20091;DHT22;10205;49.678;6.560;2023-02-01T16:27:43;11.70;65.00
20091;DHT22;10205;49.678;6.560;2023-02-01T16:30:11;11.70;65.10
20091;DHT22;10205;49.678;6.560;2023-02-01T16:32:40;11.70;64.50
20091;DHT22;10205;49.678;6.560;2023-02-01T16:35:22;11.60;64.90
20091;DHT22;10205;49.678;6.560;2023-02-01T16:37:51;11.60;64.90
20091;DHT22;10205;49.678;6.560;2023-02-01T16:40:19;11.60;65.20